createdAt,value
2023-04-10T00:02:07.209Z,31.90
2023-04-10T00:04:33.933Z,38.53
2023-04-10T00:07:01.012Z,39.75
2023-04-10T00:09:28.922Z,35.67
2023-04-10T00:11:56.588Z,40.63
2023-04-10T00:14:24.443Z,44.78
2023-04-10T00:16:51.250Z,38.90
2023-04-10T00:19:18.017Z,56.60
2023-04-10T00:21:44.862Z,42.92
2023-04-10T00:24:11.556Z,39.53
2023-04-10T00:26:38.191Z,42.40
2023-04-10T00:29:05.236Z,46.17
2023-04-10T00:31:32.133Z,43.65
2023-04-10T00:33:58.923Z,42.63
2023-04-10T00:36:26.864Z,35.83
2023-04-10T00:38:53.821Z,38.55
2023-04-10T00:41:20.523Z,40.55
2023-04-10T00:43:47.205Z,42.65
2023-04-10T00:46:14.030Z,43.20
2023-04-10T00:48:41.297Z,41.78
2023-04-10T00:51:08.334Z,41.17
2023-04-10T00:53:35.561Z,40.45
2023-04-10T00:56:02.878Z,39.72
2023-04-10T00:58:29.634Z,44.42
2023-04-10T01:00:56.710Z,41.38
2023-04-10T01:03:24.577Z,33.28
2023-04-10T01:06:26.579Z,41.63
2023-04-10T01:09:11.482Z,42.40
2023-04-10T01:11:59.414Z,49.65
2023-04-10T01:15:02.218Z,46.63
2023-04-10T01:17:40.911Z,42.30
2023-04-10T01:20:12.963Z,37.65
2023-04-10T01:22:49.065Z,38.42
2023-04-10T01:25:53.627Z,44.17
2023-04-10T01:28:30.349Z,36.35
2023-04-10T01:31:02.521Z,44.70
2023-04-10T01:36:04.898Z,39.53
2023-04-10T01:38:32.974Z,47.25
2023-04-10T01:41:02.102Z,42.63
2023-04-10T01:43:32.002Z,45.05
2023-04-10T01:46:02.209Z,40.65
2023-04-10T01:48:29.495Z,47.78
2023-04-10T01:50:57.923Z,45.92
2023-04-10T01:53:25.595Z,40.00
2023-04-10T01:55:53.697Z,41.95
2023-04-10T01:58:20.751Z,43.90
2023-04-10T02:00:47.685Z,43.85
2023-04-10T02:03:15.869Z,42.25
2023-04-10T02:06:13.516Z,43.53
2023-04-10T02:08:42.732Z,37.55
2023-04-10T02:11:15.977Z,42.95
2023-04-10T02:13:43.191Z,45.78
2023-04-10T02:16:12.384Z,40.10
2023-04-10T02:18:42.116Z,39.50
2023-04-10T02:21:09.415Z,39.88
2023-04-10T02:23:37.006Z,46.60
2023-04-10T02:26:10.350Z,51.20
2023-04-10T02:28:40.385Z,46.83
2023-04-10T02:31:07.682Z,46.53
2023-04-10T02:33:34.499Z,48.25
2023-04-10T02:36:02.194Z,45.78
2023-04-10T02:38:28.967Z,38.15
2023-04-10T02:40:55.797Z,40.90
2023-04-10T02:43:22.556Z,47.63
2023-04-10T02:45:49.304Z,45.22
2023-04-10T02:48:22.504Z,48.60
2023-04-10T02:50:58.658Z,45.67
2023-04-10T02:53:26.564Z,45.17
2023-04-10T02:55:57.013Z,42.20
2023-04-10T02:58:23.749Z,47.42
2023-04-10T03:00:53.469Z,49.45
2023-04-10T03:03:31.390Z,45.17
2023-04-10T03:05:58.189Z,48.33
2023-04-10T03:08:31.741Z,45.20
2023-04-10T03:10:58.415Z,40.50
2023-04-10T03:13:25.125Z,47.22
2023-04-10T03:15:51.837Z,41.13
2023-04-10T03:18:19.063Z,52.30
2023-04-10T03:20:49.832Z,47.65
2023-04-10T03:23:19.440Z,52.50
2023-04-10T03:25:51.183Z,46.58
2023-04-10T03:28:18.506Z,38.38
2023-04-10T03:30:45.197Z,43.85
2023-04-10T03:33:11.900Z,38.42
2023-04-10T03:35:38.674Z,50.13
2023-04-10T03:38:06.890Z,43.75
2023-04-10T03:40:34.319Z,43.33
2023-04-10T03:43:02.105Z,39.70
2023-04-10T03:45:31.513Z,39.67
2023-04-10T03:48:00.670Z,47.45
2023-04-10T03:50:36.997Z,50.28
2023-04-10T03:53:04.911Z,39.65
2023-04-10T03:55:32.116Z,43.75
2023-04-10T03:57:58.848Z,39.53
2023-04-10T04:00:27.454Z,44.33
2023-04-10T04:03:05.091Z,42.13
2023-04-10T04:05:52.463Z,40.55
2023-04-10T04:08:36.128Z,43.15
2023-04-10T04:11:31.803Z,41.28
2023-04-10T04:14:02.587Z,45.10
2023-04-10T04:16:48.393Z,46.35
2023-04-10T04:19:42.484Z,44.72
2023-04-10T04:22:23.290Z,42.47
2023-04-10T04:25:22.677Z,39.42
2023-04-10T04:27:52.172Z,44.72
2023-04-10T04:30:37.686Z,42.88
2023-04-10T04:33:30.724Z,45.10
2023-04-10T04:36:01.121Z,48.50
2023-04-10T04:38:36.835Z,42.53
2023-04-10T04:41:26.307Z,54.85
2023-04-10T04:44:06.450Z,42.17
2023-04-10T04:46:51.583Z,42.90
2023-04-10T04:49:39.525Z,41.38
2023-04-10T04:52:25.622Z,42.55
2023-04-10T04:55:21.543Z,42.63
2023-04-10T04:58:17.822Z,37.83
2023-04-10T05:01:10.399Z,42.42
2023-04-10T05:03:53.852Z,39.95
2023-04-10T05:06:40.837Z,42.60
2023-04-10T05:09:15.001Z,42.20
2023-04-10T05:12:02.402Z,37.00
2023-04-10T05:14:47.481Z,42.15
2023-04-10T05:17:30.179Z,40.88
2023-04-10T05:20:18.543Z,36.33
2023-04-10T05:22:58.862Z,39.50
2023-04-10T05:25:54.670Z,43.25
2023-04-10T05:28:49.220Z,39.17
2023-04-10T05:31:34.681Z,35.63
2023-04-10T05:34:10.699Z,40.45
2023-04-10T05:36:46.110Z,43.42
2023-04-10T05:39:30.349Z,37.78
2023-04-10T05:42:17.265Z,38.92
2023-04-10T05:44:54.361Z,31.25
2023-04-10T05:47:38.059Z,34.90
2023-04-10T05:50:14.834Z,36.72
2023-04-10T05:53:14.509Z,36.15
2023-04-10T05:56:05.129Z,31.98
2023-04-10T05:58:45.887Z,32.03
2023-04-10T06:01:25.484Z,33.67
2023-04-10T06:03:57.673Z,35.38
2023-04-10T06:06:26.176Z,33.35
2023-04-10T06:08:53.294Z,28.38
2023-04-10T06:11:21.012Z,27.17
2023-04-10T06:13:52.000Z,35.10
2023-04-10T06:16:22.598Z,30.60
2023-04-10T06:18:52.324Z,27.58
2023-04-10T06:21:19.386Z,31.38
2023-04-10T06:23:46.825Z,28.02
2023-04-10T06:26:13.504Z,28.30
2023-04-10T06:28:40.285Z,23.92
2023-04-10T06:31:07.420Z,21.17
2023-04-10T06:33:36.726Z,26.50
2023-04-10T06:36:06.711Z,23.98
2023-04-10T06:38:38.252Z,22.70
2023-04-10T06:41:06.280Z,23.80
2023-04-10T06:43:34.677Z,24.60
2023-04-10T06:46:03.721Z,22.42
2023-04-10T06:48:32.033Z,24.40
2023-04-10T06:51:00.827Z,21.95
2023-04-10T06:53:27.800Z,21.17
2023-04-10T06:55:54.462Z,20.60
2023-04-10T06:58:21.213Z,21.40
2023-04-10T07:00:47.902Z,23.60
2023-04-10T07:03:14.634Z,21.95
2023-04-10T07:05:42.340Z,22.75
2023-04-10T07:08:09.233Z,23.02
2023-04-10T07:10:36.264Z,19.23
2023-04-10T07:13:03.073Z,19.73
2023-04-10T07:15:29.772Z,20.77
2023-04-10T07:17:56.440Z,19.70
2023-04-10T07:20:23.266Z,20.20
2023-04-10T07:22:50.302Z,17.90
2023-04-10T07:25:18.327Z,19.85
2023-04-10T07:27:45.134Z,19.63
2023-04-10T07:30:13.706Z,20.00
2023-04-10T07:32:42.225Z,16.15
2023-04-10T07:35:09.639Z,12.32
2023-04-10T07:37:36.391Z,11.35
2023-04-10T07:40:03.447Z,9.02
2023-04-10T07:42:30.369Z,10.57
2023-04-10T07:44:57.392Z,9.32
2023-04-10T07:47:24.476Z,10.60
2023-04-10T07:49:51.306Z,9.50
2023-04-10T07:52:18.079Z,11.90
2023-04-10T07:54:44.750Z,10.68
2023-04-10T07:57:11.429Z,12.15
2023-04-10T07:59:38.081Z,9.43
2023-04-10T08:02:04.858Z,10.75
2023-04-10T08:04:31.762Z,9.50
2023-04-10T08:06:58.579Z,10.48
2023-04-10T08:09:25.310Z,8.45
2023-04-10T08:11:51.970Z,10.70
2023-04-10T08:14:18.854Z,11.20
2023-04-10T08:16:45.867Z,10.38
2023-04-10T08:19:12.602Z,10.00
2023-04-10T08:21:39.247Z,12.77
2023-04-10T08:24:06.037Z,10.65
2023-04-10T08:26:33.557Z,9.55
2023-04-10T08:29:00.833Z,10.63
2023-04-10T08:31:28.997Z,12.77
2023-04-10T08:33:56.776Z,12.32
2023-04-10T08:36:23.738Z,12.40
2023-04-10T08:38:50.587Z,10.95
2023-04-10T08:41:19.508Z,12.48
2023-04-10T08:43:47.073Z,11.05
2023-04-10T08:46:14.715Z,10.35
2023-04-10T08:48:58.749Z,9.55
2023-04-10T08:51:32.297Z,10.68
2023-04-10T08:54:08.120Z,11.57
2023-04-10T08:56:36.195Z,9.57
2023-04-10T08:59:03.534Z,10.43
2023-04-10T09:01:31.031Z,11.80
2023-04-10T09:03:58.541Z,10.70
2023-04-10T09:06:26.026Z,11.60
2023-04-10T09:08:52.756Z,10.45
2023-04-10T09:11:19.376Z,12.35
2023-04-10T09:13:46.392Z,9.73
2023-04-10T09:16:13.915Z,11.27
2023-04-10T09:18:46.643Z,10.15
2023-04-10T09:21:19.656Z,10.60
2023-04-10T09:23:47.729Z,10.75
2023-04-10T09:26:34.806Z,12.40
2023-04-10T09:29:02.474Z,11.70
2023-04-10T09:31:36.783Z,10.23
2023-04-10T09:34:15.348Z,8.45
2023-04-10T09:36:44.215Z,11.50
2023-04-10T09:39:12.614Z,9.88
2023-04-10T09:41:49.597Z,10.13
2023-04-10T09:44:19.664Z,9.05
2023-04-10T09:46:46.932Z,13.07
2023-04-10T09:49:13.717Z,11.73
2023-04-10T09:51:40.499Z,12.50
2023-04-10T09:54:07.256Z,10.23
2023-04-10T09:56:38.101Z,9.15
2023-04-10T09:59:07.498Z,10.65
2023-04-10T10:01:37.457Z,8.82
2023-04-10T10:04:04.921Z,9.27
2023-04-10T10:06:32.835Z,8.73
2023-04-10T10:09:04.655Z,9.30
2023-04-10T10:11:35.349Z,12.10
2023-04-10T10:14:08.919Z,11.77
2023-04-10T10:16:52.485Z,9.55
2023-04-10T10:19:31.325Z,9.77
2023-04-10T10:22:02.114Z,8.63
2023-04-10T10:24:31.561Z,8.18
2023-04-10T10:26:59.417Z,9.95
2023-04-10T10:29:27.141Z,8.50
2023-04-10T10:31:54.555Z,7.63
2023-04-10T10:34:21.737Z,10.98
2023-04-10T10:36:48.592Z,8.27
2023-04-10T10:39:39.595Z,7.47
2023-04-10T10:42:20.398Z,8.55
2023-04-10T10:45:10.085Z,7.05
2023-04-10T10:47:43.921Z,7.65
2023-04-10T10:50:10.811Z,7.80
2023-04-10T10:52:57.263Z,7.00
2023-04-10T10:55:24.467Z,7.68
2023-04-10T10:57:52.783Z,6.75
2023-04-10T11:00:23.948Z,8.18
2023-04-10T11:03:08.982Z,8.82
2023-04-10T11:05:55.321Z,7.95
2023-04-10T11:08:37.224Z,6.68
2023-04-10T11:11:08.346Z,10.50
2023-04-10T11:13:39.755Z,8.52
2023-04-10T11:16:10.384Z,6.28
2023-04-10T11:18:47.184Z,6.90
2023-04-10T11:21:19.302Z,7.18
2023-04-10T11:23:55.673Z,7.32
2023-04-10T11:26:41.210Z,7.45
2023-04-10T11:29:17.485Z,7.57
2023-04-10T11:31:58.742Z,8.27
2023-04-10T11:34:27.506Z,7.88
2023-04-10T11:36:54.567Z,7.05
2023-04-10T11:39:21.449Z,6.60
2023-04-10T11:41:50.603Z,7.45
2023-04-10T11:44:40.872Z,6.72
2023-04-10T11:47:12.242Z,7.60
2023-04-10T11:49:39.202Z,6.40
2023-04-10T11:52:06.176Z,6.20
2023-04-10T11:54:33.150Z,7.03
2023-04-10T11:57:10.165Z,5.50
2023-04-10T11:59:36.922Z,6.15
2023-04-10T12:02:15.920Z,6.47
2023-04-10T12:04:44.214Z,5.88
2023-04-10T12:07:11.610Z,7.05
2023-04-10T12:09:38.710Z,5.55
2023-04-10T12:12:07.001Z,6.32
2023-04-10T12:14:39.440Z,5.82
2023-04-10T12:17:09.865Z,5.72
2023-04-10T12:19:38.150Z,8.05
2023-04-10T12:22:05.488Z,7.28
2023-04-10T12:24:53.985Z,5.38
2023-04-10T12:27:26.604Z,5.72
2023-04-10T12:29:55.871Z,6.78
2023-04-10T12:32:23.897Z,5.25
2023-04-10T12:34:51.599Z,5.88
2023-04-10T12:37:18.922Z,6.35
2023-04-10T12:39:45.704Z,6.30
2023-04-10T12:42:17.060Z,4.38
2023-04-10T12:44:56.677Z,6.50
2023-04-10T12:47:24.427Z,8.13
2023-04-10T12:50:04.537Z,5.18
2023-04-10T12:52:31.250Z,5.65
2023-04-10T12:55:17.301Z,4.95
2023-04-10T12:57:46.514Z,5.05
2023-04-10T13:00:15.638Z,5.50
2023-04-10T13:02:42.608Z,6.90
2023-04-10T13:05:10.281Z,4.88
2023-04-10T13:07:37.925Z,4.93
2023-04-10T13:10:08.224Z,7.15
2023-04-10T13:12:36.181Z,5.00
2023-04-10T13:15:03.175Z,4.80
2023-04-10T13:17:30.249Z,4.82
2023-04-10T13:19:57.049Z,7.03
2023-04-10T13:22:23.799Z,7.13
2023-04-10T13:24:50.534Z,5.30
2023-04-10T13:27:17.237Z,4.60
2023-04-10T13:29:43.891Z,4.75
2023-04-10T13:32:10.693Z,5.25
2023-04-10T13:34:37.530Z,4.78
2023-04-10T13:37:04.573Z,5.22
2023-04-10T13:39:32.029Z,5.28
2023-04-10T13:41:59.667Z,4.75
2023-04-10T13:44:26.672Z,4.72
2023-04-10T13:46:53.812Z,5.18
2023-04-10T13:49:21.897Z,5.05
2023-04-10T13:51:49.117Z,4.90
2023-04-10T13:54:19.929Z,4.45
2023-04-10T13:56:46.836Z,4.22
2023-04-10T13:59:14.129Z,2.75
2023-04-10T14:01:40.916Z,3.67
2023-04-10T14:04:08.313Z,4.82
2023-04-10T14:06:35.275Z,5.03
2023-04-10T14:09:02.610Z,5.28
2023-04-10T14:11:29.334Z,4.80
2023-04-10T14:13:56.178Z,4.07
2023-04-10T14:16:22.913Z,4.63
2023-04-10T14:18:49.590Z,3.50
2023-04-10T14:21:16.855Z,5.63
2023-04-10T14:23:44.932Z,3.70
2023-04-10T14:26:11.622Z,5.07
2023-04-10T14:28:38.328Z,4.70
2023-04-10T14:31:06.297Z,4.25
2023-04-10T14:33:33.079Z,3.30
2023-04-10T14:35:59.826Z,2.60
2023-04-10T14:38:26.529Z,4.45
2023-04-10T14:40:53.899Z,3.25
2023-04-10T14:43:20.838Z,3.30
2023-04-10T14:45:47.622Z,3.35
2023-04-10T14:48:15.032Z,3.60
2023-04-10T14:50:41.708Z,3.42
2023-04-10T14:53:10.105Z,3.83
2023-04-10T14:55:37.238Z,3.15
2023-04-10T14:58:04.466Z,1.92
2023-04-10T15:00:31.884Z,1.92
2023-04-10T15:02:58.688Z,1.65
2023-04-10T15:05:26.484Z,1.23
2023-04-10T15:07:53.599Z,1.85
2023-04-10T15:10:20.538Z,1.70
2023-04-10T15:12:47.188Z,1.48
2023-04-10T15:15:13.846Z,4.32
2023-04-10T15:17:41.567Z,3.47
2023-04-10T15:20:08.626Z,2.03
2023-04-10T15:22:35.813Z,1.92
2023-04-10T15:25:02.842Z,1.67
2023-04-10T15:27:29.578Z,2.20
2023-04-10T15:29:56.263Z,1.65
2023-04-10T15:32:22.927Z,1.52
2023-04-10T15:34:49.659Z,2.58
2023-04-10T15:37:16.427Z,1.83
2023-04-10T15:39:43.177Z,2.38
2023-04-10T15:42:09.815Z,1.98
2023-04-10T15:44:36.499Z,1.65
2023-04-10T15:47:03.247Z,2.70
2023-04-10T15:49:37.980Z,2.05
2023-04-10T15:52:06.519Z,1.77
2023-04-10T15:54:33.820Z,2.47
2023-04-10T15:57:01.686Z,1.77
2023-04-10T15:59:28.369Z,2.08
2023-04-10T16:01:55.451Z,1.83
2023-04-10T16:04:22.513Z,2.00
2023-04-10T16:06:49.367Z,3.15
2023-04-10T16:09:25.393Z,2.65
2023-04-10T16:11:54.145Z,2.22
2023-04-10T16:14:20.947Z,3.00
2023-04-10T16:16:47.678Z,1.52
2023-04-10T16:19:14.398Z,2.05
2023-04-10T16:21:42.653Z,2.67
2023-04-10T16:24:09.326Z,1.70
2023-04-10T16:26:36.002Z,1.55
2023-04-10T16:29:02.664Z,2.53
2023-04-10T16:31:29.372Z,2.40
2023-04-10T16:33:56.531Z,1.35
2023-04-10T16:36:23.533Z,2.70
2023-04-10T16:38:50.441Z,2.30
2023-04-10T16:41:18.276Z,1.15
2023-04-10T16:43:45.082Z,2.47
2023-04-10T16:46:11.983Z,2.10
2023-04-10T16:48:38.701Z,2.67
2023-04-10T16:51:06.728Z,2.08
2023-04-10T16:53:35.848Z,2.05
2023-04-10T16:56:04.400Z,4.80
2023-04-10T16:58:33.347Z,2.45
2023-04-10T17:01:00.395Z,2.72
2023-04-10T17:03:27.186Z,2.83
2023-04-10T17:05:53.933Z,4.60
2023-04-10T17:08:20.615Z,2.25
2023-04-10T17:10:47.277Z,2.25
2023-04-10T17:13:14.286Z,2.10
2023-04-10T17:15:40.905Z,2.58
2023-04-10T17:18:07.646Z,2.85
2023-04-10T17:20:37.428Z,2.13
2023-04-10T17:23:04.157Z,1.80
2023-04-10T17:25:31.017Z,2.58
2023-04-10T17:27:58.013Z,2.42
2023-04-10T17:30:24.764Z,5.03
2023-04-10T17:32:51.527Z,2.17
2023-04-10T17:35:18.460Z,2.50
2023-04-10T17:37:45.091Z,3.13
2023-04-10T17:40:12.169Z,3.72
2023-04-10T17:42:38.827Z,4.28
2023-04-10T17:45:06.078Z,3.75
2023-04-10T17:47:32.817Z,5.35
2023-04-10T17:49:59.521Z,3.80
2023-04-10T17:52:26.380Z,5.18
2023-04-10T17:54:53.069Z,3.53
2023-04-10T17:57:19.806Z,2.97
2023-04-10T17:59:46.515Z,3.40
2023-04-10T18:02:13.212Z,3.97
2023-04-10T18:04:39.923Z,2.42
2023-04-10T18:07:06.658Z,2.97
2023-04-10T18:09:33.340Z,2.33
2023-04-10T18:12:02.225Z,3.08
2023-04-10T18:14:29.074Z,2.80
2023-04-10T18:16:55.768Z,3.03
2023-04-10T18:19:22.501Z,2.67
2023-04-10T18:21:49.307Z,7.43
2023-04-10T18:24:16.073Z,2.97
2023-04-10T18:26:43.054Z,2.95
2023-04-10T18:29:09.745Z,3.20
2023-04-10T18:31:36.456Z,3.05
2023-04-10T18:34:07.973Z,2.92
2023-04-10T18:36:35.210Z,2.78
2023-04-10T18:39:03.258Z,2.88
2023-04-10T18:41:30.194Z,3.33
2023-04-10T18:44:04.192Z,2.95
2023-04-10T18:46:32.986Z,2.20
2023-04-10T18:49:00.988Z,3.08
2023-04-10T18:51:28.143Z,3.50
2023-04-10T18:53:55.500Z,2.35
2023-04-10T18:56:22.506Z,2.30
2023-04-10T18:58:50.377Z,3.00
2023-04-10T19:01:20.622Z,2.63
2023-04-10T19:03:50.060Z,1.85
2023-04-10T19:06:17.745Z,2.58
2023-04-10T19:08:44.460Z,2.00
2023-04-10T19:11:11.390Z,3.03
2023-04-10T19:13:38.044Z,2.83
2023-04-10T19:16:05.470Z,2.63
2023-04-10T19:18:32.413Z,2.33
2023-04-10T19:20:59.477Z,2.75
2023-04-10T19:23:26.642Z,2.33
2023-04-10T19:25:54.518Z,2.28
2023-04-10T19:28:23.246Z,1.60
2023-04-10T19:30:50.265Z,2.45
2023-04-10T19:33:17.244Z,2.65
2023-04-10T19:35:44.192Z,3.05
2023-04-10T19:38:11.275Z,5.22
2023-04-10T19:40:37.970Z,4.15
2023-04-10T19:43:04.729Z,2.22
2023-04-10T19:45:32.969Z,2.40
2023-04-10T19:48:00.228Z,2.42
2023-04-10T19:50:31.118Z,2.33
2023-04-10T19:52:58.205Z,1.98
2023-04-10T19:55:25.303Z,2.95
2023-04-10T19:57:52.201Z,3.75
2023-04-10T20:00:19.347Z,2.55
2023-04-10T20:02:46.193Z,2.38
2023-04-10T20:05:13.218Z,4.30
2023-04-10T20:07:40.133Z,1.92
2023-04-10T20:10:07.407Z,3.47
2023-04-10T20:12:34.182Z,4.22
2023-04-10T20:15:02.179Z,4.07
2023-04-10T20:17:29.452Z,2.63
2023-04-10T20:19:57.545Z,6.22
2023-04-10T20:22:24.315Z,2.28
2023-04-10T20:24:51.060Z,3.92
2023-04-10T20:27:17.787Z,3.75
2023-04-10T20:29:44.451Z,5.55
2023-04-10T20:32:11.184Z,2.92
2023-04-10T20:34:37.888Z,2.15
2023-04-10T20:37:05.726Z,3.38
2023-04-10T20:39:33.094Z,3.53
2023-04-10T20:41:59.806Z,9.45
2023-04-10T20:44:26.489Z,2.55
2023-04-10T20:46:53.199Z,3.08
2023-04-10T20:49:19.887Z,3.90
2023-04-10T20:51:47.101Z,2.97
2023-04-10T20:54:13.930Z,6.53
2023-04-10T20:56:43.665Z,3.35
2023-04-10T20:59:11.135Z,5.18
2023-04-10T21:01:38.166Z,3.22
2023-04-10T21:04:05.658Z,3.05
2023-04-10T21:06:33.530Z,4.60
2023-04-10T21:09:00.431Z,5.10
2023-04-10T21:11:27.884Z,3.35
2023-04-10T21:13:54.744Z,3.28
2023-04-10T21:16:21.612Z,2.45
2023-04-10T21:18:48.527Z,3.28
2023-04-10T21:21:15.430Z,3.50
2023-04-10T21:23:42.090Z,4.28
2023-04-10T21:26:08.720Z,4.40
2023-04-10T21:28:35.419Z,3.53
2023-04-10T21:31:02.198Z,3.83
2023-04-10T21:33:28.875Z,8.40
2023-04-10T21:35:56.170Z,6.68
2023-04-10T21:38:23.965Z,5.65
2023-04-10T21:40:51.977Z,3.65
2023-04-10T21:43:19.668Z,2.65
2023-04-10T21:45:46.656Z,3.45
2023-04-10T21:48:13.389Z,6.15
2023-04-10T21:50:40.593Z,6.18
2023-04-10T21:53:07.381Z,4.18
2023-04-10T21:55:34.053Z,4.55
2023-04-10T21:58:00.695Z,4.55
2023-04-10T22:00:28.654Z,5.25
2023-04-10T22:02:55.757Z,3.63
2023-04-10T22:05:24.387Z,4.30
2023-04-10T22:07:51.757Z,8.23
2023-04-10T22:10:18.582Z,5.45
2023-04-10T22:12:48.433Z,6.35
2023-04-10T22:15:16.161Z,3.33
2023-04-10T22:17:43.208Z,5.95
2023-04-10T22:20:10.647Z,5.85
2023-04-10T22:22:37.445Z,5.75
2023-04-10T22:25:04.482Z,3.80
2023-04-10T22:27:32.263Z,3.60
2023-04-10T22:32:28.437Z,5.85
2023-04-10T22:34:55.103Z,4.90
2023-04-10T22:37:21.782Z,3.65
2023-04-10T22:39:48.421Z,2.38
2023-04-10T22:42:15.781Z,2.63
2023-04-10T22:44:43.909Z,4.80
2023-04-10T22:47:10.645Z,4.40
2023-04-10T22:49:37.315Z,2.85
2023-04-10T22:52:04.000Z,2.47
2023-04-10T22:54:30.681Z,2.72
2023-04-10T22:56:57.867Z,2.13
2023-04-10T22:59:24.550Z,4.85
2023-04-10T23:01:51.628Z,3.15
2023-04-10T23:04:18.550Z,4.25
2023-04-10T23:06:45.440Z,3.28
2023-04-10T23:09:12.089Z,4.53
2023-04-10T23:11:38.852Z,2.45
2023-04-10T23:14:05.563Z,3.92
2023-04-10T23:16:32.321Z,4.20
2023-04-10T23:18:59.026Z,1.13
2023-04-10T23:21:27.071Z,1.85
2023-04-10T23:23:53.718Z,1.33
2023-04-10T23:26:20.764Z,2.70
2023-04-10T23:28:47.698Z,1.65
2023-04-10T23:31:14.532Z,2.25
2023-04-10T23:33:41.297Z,6.45
2023-04-10T23:36:08.323Z,3.28
2023-04-10T23:38:35.025Z,1.65
2023-04-10T23:41:03.029Z,6.03
2023-04-10T23:43:29.806Z,4.18
2023-04-10T23:45:56.560Z,1.42
2023-04-10T23:48:23.279Z,1.55
2023-04-10T23:50:50.161Z,1.70
2023-04-10T23:53:17.119Z,2.70
2023-04-10T23:55:43.807Z,1.58
2023-04-10T23:58:10.514Z,7.32
